sensor_id;sensor_type;location;lat;lon;timestamp;temperature;humidity
2749;DHT22;1382;52.142;11.618;2024-02-16T00:00:45;14.80;63.30
2749;DHT22;1382;52.142;11.618;2024-02-16T00:03:12;14.80;63.30
2749;DHT22;1382;52.142;11.618;2024-02-16T00:05:51;14.80;63.30
2749;DHT22;1382;52.142;11.618;2024-02-16T00:08:18;14.80;63.20
2749;DHT22;1382;52.142;11.618;2024-02-16T00:10:45;14.80;63.50
2749;DHT22;1382;52.142;11.618;2024-02-16T00:13:12;14.70;63.30
2749;DHT22;1382;52.142;11.618;2024-02-16T00:15:39;14.70;63.30
2749;DHT22;1382;52.142;11.618;2024-02-16T00:18:06;14.70;63.30
2749;DHT22;1382;52.142;11.618;2024-02-16T00:20:33;14.70;63.30
2749;DHT22;1382;52.142;11.618;2024-02-16T00:23:01;14.70;63.40
2749;DHT22;1382;52.142;11.618;2024-02-16T00:25:28;14.70;63.40
2749;DHT22;1382;52.142;11.618;2024-02-16T00:27:57;14.70;63.40
2749;DHT22;1382;52.142;11.618;2024-02-16T00:30:24;14.80;63.50
2749;DHT22;1382;52.142;11.618;2024-02-16T00:32:51;14.60;63.30
2749;DHT22;1382;52.142;11.618;2024-02-16T00:35:20;14.60;63.30
2749;DHT22;1382;52.142;11.618;2024-02-16T00:37:49;14.50;63.30
2749;DHT22;1382;52.142;11.618;2024-02-16T00:40:17;14.60;63.30
2749;DHT22;1382;52.142;11.618;2024-02-16T00:42:44;14.60;63.30
2749;DHT22;1382;52.142;11.618;2024-02-16T00:45:11;14.60;63.40
2749;DHT22;1382;52.142;11.618;2024-02-16T00:47:40;14.60;63.30
2749;DHT22;1382;52.142;11.618;2024-02-16T00:50:08;14.60;63.40
2749;DHT22;1382;52.142;11.618;2024-02-16T00:52:35;14.60;63.40
2749;DHT22;1382;52.142;11.618;2024-02-16T00:55:02;14.60;63.40
2749;DHT22;1382;52.142;11.618;2024-02-16T00:57:33;14.60;63.30
2749;DHT22;1382;52.142;11.618;2024-02-16T01:00:00;14.50;63.20
2749;DHT22;1382;52.142;11.618;2024-02-16T01:02:27;14.50;63.30
2749;DHT22;1382;52.142;11.618;2024-02-16T01:04:56;14.50;63.30
2749;DHT22;1382;52.142;11.618;2024-02-16T01:07:25;14.50;63.20
2749;DHT22;1382;52.142;11.618;2024-02-16T01:09:51;14.50;63.20
2749;DHT22;1382;52.142;11.618;2024-02-16T01:12:20;14.60;63.30
2749;DHT22;1382;52.142;11.618;2024-02-16T01:14:48;14.50;63.20
2749;DHT22;1382;52.142;11.618;2024-02-16T01:17:15;14.50;63.20
2749;DHT22;1382;52.142;11.618;2024-02-16T01:19:42;14.50;63.10
2749;DHT22;1382;52.142;11.618;2024-02-16T01:22:09;14.50;63.20
2749;DHT22;1382;52.142;11.618;2024-02-16T01:24:35;14.50;63.10
2749;DHT22;1382;52.142;11.618;2024-02-16T01:27:02;14.50;63.10
2749;DHT22;1382;52.142;11.618;2024-02-16T01:29:29;14.40;63.00
2749;DHT22;1382;52.142;11.618;2024-02-16T01:31:58;14.50;63.10
2749;DHT22;1382;52.142;11.618;2024-02-16T01:34:26;14.40;63.10
2749;DHT22;1382;52.142;11.618;2024-02-16T01:36:53;14.40;63.10
2749;DHT22;1382;52.142;11.618;2024-02-16T01:39:20;14.40;63.10
2749;DHT22;1382;52.142;11.618;2024-02-16T01:41:47;14.50;63.20
2749;DHT22;1382;52.142;11.618;2024-02-16T01:44:14;14.30;63.00
2749;DHT22;1382;52.142;11.618;2024-02-16T01:46:41;14.40;63.10
2749;DHT22;1382;52.142;11.618;2024-02-16T01:49:10;14.30;63.00
2749;DHT22;1382;52.142;11.618;2024-02-16T01:51:37;14.30;63.00
2749;DHT22;1382;52.142;11.618;2024-02-16T01:54:04;14.30;63.00
2749;DHT22;1382;52.142;11.618;2024-02-16T01:56:31;14.30;63.00
2749;DHT22;1382;52.142;11.618;2024-02-16T01:58:59;14.20;62.90
2749;DHT22;1382;52.142;11.618;2024-02-16T02:01:26;14.20;63.00
2749;DHT22;1382;52.142;11.618;2024-02-16T02:03:53;14.20;63.10
2749;DHT22;1382;52.142;11.618;2024-02-16T02:06:21;14.20;63.00
2749;DHT22;1382;52.142;11.618;2024-02-16T02:08:50;14.10;62.90
2749;DHT22;1382;52.142;11.618;2024-02-16T02:11:17;14.30;63.30
2749;DHT22;1382;52.142;11.618;2024-02-16T02:13:44;14.10;63.00
2749;DHT22;1382;52.142;11.618;2024-02-16T02:16:11;14.10;63.00
2749;DHT22;1382;52.142;11.618;2024-02-16T02:18:39;14.10;63.10
2749;DHT22;1382;52.142;11.618;2024-02-16T02:21:06;14.00;63.10
2749;DHT22;1382;52.142;11.618;2024-02-16T02:23:34;14.00;63.10
2749;DHT22;1382;52.142;11.618;2024-02-16T02:26:01;14.10;63.30
2749;DHT22;1382;52.142;11.618;2024-02-16T02:28:28;14.10;63.40
2749;DHT22;1382;52.142;11.618;2024-02-16T02:30:55;14.10;63.40
2749;DHT22;1382;52.142;11.618;2024-02-16T02:33:21;14.10;63.30
2749;DHT22;1382;52.142;11.618;2024-02-16T02:35:49;14.00;63.30
2749;DHT22;1382;52.142;11.618;2024-02-16T02:38:16;14.10;63.30
2749;DHT22;1382;52.142;11.618;2024-02-16T02:40:46;14.10;63.50
2749;DHT22;1382;52.142;11.618;2024-02-16T02:43:18;13.90;63.30
2749;DHT22;1382;52.142;11.618;2024-02-16T02:45:45;14.10;63.60
2749;DHT22;1382;52.142;11.618;2024-02-16T02:48:15;13.90;63.30
2749;DHT22;1382;52.142;11.618;2024-02-16T02:50:42;13.90;63.30
2749;DHT22;1382;52.142;11.618;2024-02-16T02:53:08;13.90;63.20
2749;DHT22;1382;52.142;11.618;2024-02-16T02:55:35;13.90;63.30
2749;DHT22;1382;52.142;11.618;2024-02-16T02:58:03;13.90;63.20
2749;DHT22;1382;52.142;11.618;2024-02-16T03:00:30;13.90;63.30
2749;DHT22;1382;52.142;11.618;2024-02-16T03:02:57;13.90;63.20
2749;DHT22;1382;52.142;11.618;2024-02-16T03:05:24;13.90;63.20
2749;DHT22;1382;52.142;11.618;2024-02-16T03:07:51;13.90;63.30
2749;DHT22;1382;52.142;11.618;2024-02-16T03:10:18;13.90;63.20
2749;DHT22;1382;52.142;11.618;2024-02-16T03:12:45;13.90;63.20
2749;DHT22;1382;52.142;11.618;2024-02-16T03:15:13;13.90;63.30
2749;DHT22;1382;52.142;11.618;2024-02-16T03:17:40;13.90;63.20
2749;DHT22;1382;52.142;11.618;2024-02-16T03:20:07;13.90;63.20
2749;DHT22;1382;52.142;11.618;2024-02-16T03:22:34;13.90;63.20
2749;DHT22;1382;52.142;11.618;2024-02-16T03:25:01;13.90;63.20
2749;DHT22;1382;52.142;11.618;2024-02-16T03:27:28;13.90;63.20
2749;DHT22;1382;52.142;11.618;2024-02-16T03:29:55;13.90;63.20
2749;DHT22;1382;52.142;11.618;2024-02-16T03:32:23;14.00;63.20
2749;DHT22;1382;52.142;11.618;2024-02-16T03:34:50;13.90;63.20
2749;DHT22;1382;52.142;11.618;2024-02-16T03:37:17;13.90;63.10
2749;DHT22;1382;52.142;11.618;2024-02-16T03:39:44;13.90;63.20
2749;DHT22;1382;52.142;11.618;2024-02-16T03:42:10;13.90;63.20
2749;DHT22;1382;52.142;11.618;2024-02-16T03:44:37;13.90;63.10
2749;DHT22;1382;52.142;11.618;2024-02-16T03:47:04;13.80;63.00
2749;DHT22;1382;52.142;11.618;2024-02-16T03:49:33;13.80;63.10
2749;DHT22;1382;52.142;11.618;2024-02-16T03:51:59;13.80;63.10
2749;DHT22;1382;52.142;11.618;2024-02-16T03:54:26;13.80;63.00
2749;DHT22;1382;52.142;11.618;2024-02-16T03:56:53;13.80;63.10
2749;DHT22;1382;52.142;11.618;2024-02-16T03:59:20;13.90;63.10
2749;DHT22;1382;52.142;11.618;2024-02-16T04:01:47;13.80;63.00
2749;DHT22;1382;52.142;11.618;2024-02-16T04:04:14;13.80;63.00
2749;DHT22;1382;52.142;11.618;2024-02-16T04:06:42;13.80;63.10
2749;DHT22;1382;52.142;11.618;2024-02-16T04:09:09;13.80;63.00
2749;DHT22;1382;52.142;11.618;2024-02-16T04:11:36;13.80;63.00
2749;DHT22;1382;52.142;11.618;2024-02-16T04:14:03;13.80;63.00
2749;DHT22;1382;52.142;11.618;2024-02-16T04:16:30;13.80;62.90
2749;DHT22;1382;52.142;11.618;2024-02-16T04:18:57;13.80;63.00
2749;DHT22;1382;52.142;11.618;2024-02-16T04:21:24;13.80;63.00
2749;DHT22;1382;52.142;11.618;2024-02-16T04:23:52;13.80;62.90
2749;DHT22;1382;52.142;11.618;2024-02-16T04:26:19;13.80;63.00
2749;DHT22;1382;52.142;11.618;2024-02-16T04:28:46;13.80;63.00
2749;DHT22;1382;52.142;11.618;2024-02-16T04:31:13;13.80;63.00
2749;DHT22;1382;52.142;11.618;2024-02-16T04:33:39;13.80;63.00
2749;DHT22;1382;52.142;11.618;2024-02-16T04:36:07;13.70;62.90
2749;DHT22;1382;52.142;11.618;2024-02-16T04:38:35;13.80;63.00
2749;DHT22;1382;52.142;11.618;2024-02-16T04:41:04;13.70;62.80
2749;DHT22;1382;52.142;11.618;2024-02-16T04:43:31;13.80;63.00
2749;DHT22;1382;52.142;11.618;2024-02-16T04:45:58;13.90;63.10
2749;DHT22;1382;52.142;11.618;2024-02-16T04:48:25;13.70;62.80
2749;DHT22;1382;52.142;11.618;2024-02-16T04:50:52;13.70;62.90
2749;DHT22;1382;52.142;11.618;2024-02-16T04:53:18;13.70;62.90
2749;DHT22;1382;52.142;11.618;2024-02-16T04:55:45;13.80;63.00
2749;DHT22;1382;52.142;11.618;2024-02-16T04:58:13;13.80;63.30
2749;DHT22;1382;52.142;11.618;2024-02-16T05:00:40;13.70;62.90
2749;DHT22;1382;52.142;11.618;2024-02-16T05:03:07;13.70;62.80
2749;DHT22;1382;52.142;11.618;2024-02-16T05:05:34;13.70;62.80
2749;DHT22;1382;52.142;11.618;2024-02-16T05:08:01;13.70;62.80
2749;DHT22;1382;52.142;11.618;2024-02-16T05:10:28;13.80;63.00
2749;DHT22;1382;52.142;11.618;2024-02-16T05:12:55;13.70;62.80
2749;DHT22;1382;52.142;11.618;2024-02-16T05:15:23;13.70;62.80
2749;DHT22;1382;52.142;11.618;2024-02-16T05:17:50;13.70;62.80
2749;DHT22;1382;52.142;11.618;2024-02-16T05:20:18;13.80;62.80
2749;DHT22;1382;52.142;11.618;2024-02-16T05:22:45;13.80;62.90
2749;DHT22;1382;52.142;11.618;2024-02-16T05:25:13;13.70;62.60
2749;DHT22;1382;52.142;11.618;2024-02-16T05:27:40;13.70;62.70
2749;DHT22;1382;52.142;11.618;2024-02-16T05:30:10;13.80;62.80
2749;DHT22;1382;52.142;11.618;2024-02-16T05:32:38;13.80;62.70
2749;DHT22;1382;52.142;11.618;2024-02-16T05:35:07;13.80;62.80
2749;DHT22;1382;52.142;11.618;2024-02-16T05:37:34;13.80;62.70
2749;DHT22;1382;52.142;11.618;2024-02-16T05:40:01;13.70;62.70
2749;DHT22;1382;52.142;11.618;2024-02-16T05:42:28;13.70;62.60
2749;DHT22;1382;52.142;11.618;2024-02-16T05:44:55;13.80;62.70
2749;DHT22;1382;52.142;11.618;2024-02-16T05:47:21;13.70;62.60
2749;DHT22;1382;52.142;11.618;2024-02-16T05:49:50;13.70;62.60
2749;DHT22;1382;52.142;11.618;2024-02-16T05:52:23;13.70;62.50
2749;DHT22;1382;52.142;11.618;2024-02-16T05:54:52;13.70;62.60
2749;DHT22;1382;52.142;11.618;2024-02-16T05:57:18;13.80;62.70
2749;DHT22;1382;52.142;11.618;2024-02-16T05:59:45;13.70;62.50
2749;DHT22;1382;52.142;11.618;2024-02-16T06:02:16;13.70;62.50
2749;DHT22;1382;52.142;11.618;2024-02-16T06:04:45;13.70;62.50
2749;DHT22;1382;52.142;11.618;2024-02-16T06:07:13;13.70;62.50
2749;DHT22;1382;52.142;11.618;2024-02-16T06:09:40;13.70;62.50
2749;DHT22;1382;52.142;11.618;2024-02-16T06:12:08;13.60;62.40
2749;DHT22;1382;52.142;11.618;2024-02-16T06:14:35;13.60;62.40
2749;DHT22;1382;52.142;11.618;2024-02-16T06:17:03;13.60;62.40
2749;DHT22;1382;52.142;11.618;2024-02-16T06:19:32;13.60;62.50
2749;DHT22;1382;52.142;11.618;2024-02-16T06:22:13;13.60;62.50
2749;DHT22;1382;52.142;11.618;2024-02-16T06:24:58;13.60;62.50
2749;DHT22;1382;52.142;11.618;2024-02-16T06:27:33;13.60;63.30
2749;DHT22;1382;52.142;11.618;2024-02-16T06:30:12;13.60;62.70
2749;DHT22;1382;52.142;11.618;2024-02-16T06:32:43;13.60;62.50
2749;DHT22;1382;52.142;11.618;2024-02-16T06:35:11;13.50;62.60
2749;DHT22;1382;52.142;11.618;2024-02-16T06:37:38;13.50;62.60
2749;DHT22;1382;52.142;11.618;2024-02-16T06:40:08;13.50;62.60
2749;DHT22;1382;52.142;11.618;2024-02-16T06:42:34;13.50;62.50
2749;DHT22;1382;52.142;11.618;2024-02-16T06:45:01;13.50;62.60
2749;DHT22;1382;52.142;11.618;2024-02-16T06:47:28;13.50;62.50
2749;DHT22;1382;52.142;11.618;2024-02-16T06:49:55;13.50;62.50
2749;DHT22;1382;52.142;11.618;2024-02-16T06:52:22;13.50;62.60
2749;DHT22;1382;52.142;11.618;2024-02-16T06:54:49;13.50;62.60
2749;DHT22;1382;52.142;11.618;2024-02-16T06:57:18;13.50;62.80
2749;DHT22;1382;52.142;11.618;2024-02-16T06:59:44;13.50;63.40
2749;DHT22;1382;52.142;11.618;2024-02-16T07:02:11;13.50;62.70
2749;DHT22;1382;52.142;11.618;2024-02-16T07:04:39;13.50;62.70
2749;DHT22;1382;52.142;11.618;2024-02-16T07:07:06;13.50;62.70
2749;DHT22;1382;52.142;11.618;2024-02-16T07:09:33;13.50;62.80
2749;DHT22;1382;52.142;11.618;2024-02-16T07:12:00;13.50;62.80
2749;DHT22;1382;52.142;11.618;2024-02-16T07:14:29;13.50;62.90
2749;DHT22;1382;52.142;11.618;2024-02-16T07:16:55;13.50;62.90
2749;DHT22;1382;52.142;11.618;2024-02-16T07:19:22;13.50;62.80
2749;DHT22;1382;52.142;11.618;2024-02-16T07:21:49;13.50;62.80
2749;DHT22;1382;52.142;11.618;2024-02-16T07:24:16;13.60;62.80
2749;DHT22;1382;52.142;11.618;2024-02-16T07:26:43;13.50;62.70
2749;DHT22;1382;52.142;11.618;2024-02-16T07:29:09;13.60;62.80
2749;DHT22;1382;52.142;11.618;2024-02-16T07:31:37;13.60;63.00
2749;DHT22;1382;52.142;11.618;2024-02-16T07:34:04;13.60;63.00
2749;DHT22;1382;52.142;11.618;2024-02-16T07:36:31;13.70;62.90
2749;DHT22;1382;52.142;11.618;2024-02-16T07:39:00;13.60;62.80
2749;DHT22;1382;52.142;11.618;2024-02-16T07:41:27;13.60;62.80
2749;DHT22;1382;52.142;11.618;2024-02-16T07:43:54;13.70;63.10
2749;DHT22;1382;52.142;11.618;2024-02-16T07:46:21;13.60;62.90
2749;DHT22;1382;52.142;11.618;2024-02-16T07:48:50;13.60;62.80
2749;DHT22;1382;52.142;11.618;2024-02-16T07:51:19;13.70;63.00
2749;DHT22;1382;52.142;11.618;2024-02-16T07:53:53;13.70;62.90
2749;DHT22;1382;52.142;11.618;2024-02-16T07:56:20;13.70;63.10
2749;DHT22;1382;52.142;11.618;2024-02-16T07:58:46;13.70;63.00
2749;DHT22;1382;52.142;11.618;2024-02-16T08:01:13;13.70;63.10
2749;DHT22;1382;52.142;11.618;2024-02-16T08:03:40;13.80;63.20
2749;DHT22;1382;52.142;11.618;2024-02-16T08:06:08;13.80;63.20
2749;DHT22;1382;52.142;11.618;2024-02-16T08:08:36;13.80;63.20
2749;DHT22;1382;52.142;11.618;2024-02-16T08:11:02;13.80;63.20
2749;DHT22;1382;52.142;11.618;2024-02-16T08:13:30;13.80;63.10
2749;DHT22;1382;52.142;11.618;2024-02-16T08:15:56;13.90;63.20
2749;DHT22;1382;52.142;11.618;2024-02-16T08:18:23;13.90;63.10
2749;DHT22;1382;52.142;11.618;2024-02-16T08:20:50;13.90;63.10
2749;DHT22;1382;52.142;11.618;2024-02-16T08:23:19;14.00;63.10
2749;DHT22;1382;52.142;11.618;2024-02-16T08:25:45;14.00;63.20
2749;DHT22;1382;52.142;11.618;2024-02-16T08:28:12;14.00;63.20
2749;DHT22;1382;52.142;11.618;2024-02-16T08:30:39;14.10;63.40
2749;DHT22;1382;52.142;11.618;2024-02-16T08:33:06;14.10;63.70
2749;DHT22;1382;52.142;11.618;2024-02-16T08:35:33;14.10;63.40
2749;DHT22;1382;52.142;11.618;2024-02-16T08:37:59;14.10;63.30
2749;DHT22;1382;52.142;11.618;2024-02-16T08:40:28;14.20;63.40
2749;DHT22;1382;52.142;11.618;2024-02-16T08:42:57;14.20;63.30
2749;DHT22;1382;52.142;11.618;2024-02-16T08:45:24;14.20;63.20
2749;DHT22;1382;52.142;11.618;2024-02-16T08:47:51;14.30;63.60
2749;DHT22;1382;52.142;11.618;2024-02-16T08:50:19;14.50;63.60
2749;DHT22;1382;52.142;11.618;2024-02-16T08:52:46;14.40;63.40
2749;DHT22;1382;52.142;11.618;2024-02-16T08:55:13;14.40;63.50
2749;DHT22;1382;52.142;11.618;2024-02-16T08:57:41;14.50;63.50
2749;DHT22;1382;52.142;11.618;2024-02-16T09:00:09;14.50;63.40
2749;DHT22;1382;52.142;11.618;2024-02-16T09:02:36;14.50;63.30
2749;DHT22;1382;52.142;11.618;2024-02-16T09:05:03;14.60;63.20
2749;DHT22;1382;52.142;11.618;2024-02-16T09:07:30;14.60;63.10
2749;DHT22;1382;52.142;11.618;2024-02-16T09:09:57;14.70;63.20
2749;DHT22;1382;52.142;11.618;2024-02-16T09:12:24;14.70;63.10
2749;DHT22;1382;52.142;11.618;2024-02-16T09:14:52;14.80;63.20
2749;DHT22;1382;52.142;11.618;2024-02-16T09:17:19;14.80;63.00
2749;DHT22;1382;52.142;11.618;2024-02-16T09:19:46;14.90;62.90
2749;DHT22;1382;52.142;11.618;2024-02-16T09:22:13;14.90;62.80
2749;DHT22;1382;52.142;11.618;2024-02-16T09:24:39;14.90;62.70
2749;DHT22;1382;52.142;11.618;2024-02-16T09:27:06;15.00;62.90
2749;DHT22;1382;52.142;11.618;2024-02-16T09:29:33;15.00;62.90
2749;DHT22;1382;52.142;11.618;2024-02-16T09:32:02;15.00;63.00
2749;DHT22;1382;52.142;11.618;2024-02-16T09:34:29;15.20;63.00
2749;DHT22;1382;52.142;11.618;2024-02-16T09:36:56;15.10;63.10
2749;DHT22;1382;52.142;11.618;2024-02-16T09:39:23;15.10;63.00
2749;DHT22;1382;52.142;11.618;2024-02-16T09:41:51;15.20;63.20
2749;DHT22;1382;52.142;11.618;2024-02-16T09:44:18;15.20;63.30
2749;DHT22;1382;52.142;11.618;2024-02-16T09:46:48;15.10;63.10
2749;DHT22;1382;52.142;11.618;2024-02-16T09:49:22;15.30;63.40
2749;DHT22;1382;52.142;11.618;2024-02-16T09:52:02;15.40;63.50
2749;DHT22;1382;52.142;11.618;2024-02-16T09:54:31;15.40;63.50
2749;DHT22;1382;52.142;11.618;2024-02-16T09:56:58;15.50;63.50
2749;DHT22;1382;52.142;11.618;2024-02-16T09:59:25;15.50;63.40
2749;DHT22;1382;52.142;11.618;2024-02-16T10:01:59;15.60;63.50
2749;DHT22;1382;52.142;11.618;2024-02-16T10:04:28;15.70;63.80
2749;DHT22;1382;52.142;11.618;2024-02-16T10:06:57;15.80;63.50
2749;DHT22;1382;52.142;11.618;2024-02-16T10:09:25;15.80;63.40
2749;DHT22;1382;52.142;11.618;2024-02-16T10:11:52;15.90;63.30
2749;DHT22;1382;52.142;11.618;2024-02-16T10:14:19;16.10;63.40
2749;DHT22;1382;52.142;11.618;2024-02-16T10:16:46;16.10;63.30
2749;DHT22;1382;52.142;11.618;2024-02-16T10:19:13;16.10;63.30
2749;DHT22;1382;52.142;11.618;2024-02-16T10:21:45;16.20;63.10
2749;DHT22;1382;52.142;11.618;2024-02-16T10:24:21;16.40;63.30
2749;DHT22;1382;52.142;11.618;2024-02-16T10:27:02;16.50;62.90
2749;DHT22;1382;52.142;11.618;2024-02-16T10:29:54;16.50;62.80
2749;DHT22;1382;52.142;11.618;2024-02-16T10:32:50;16.50;62.70
2749;DHT22;1382;52.142;11.618;2024-02-16T10:35:17;16.80;62.90
2749;DHT22;1382;52.142;11.618;2024-02-16T10:37:46;16.70;62.60
2749;DHT22;1382;52.142;11.618;2024-02-16T10:40:14;16.80;62.50
2749;DHT22;1382;52.142;11.618;2024-02-16T10:42:43;16.90;62.20
2749;DHT22;1382;52.142;11.618;2024-02-16T10:45:12;16.90;61.80
2749;DHT22;1382;52.142;11.618;2024-02-16T10:47:39;17.00;61.40
2749;DHT22;1382;52.142;11.618;2024-02-16T10:50:07;17.10;61.00
2749;DHT22;1382;52.142;11.618;2024-02-16T10:52:35;17.20;61.10
2749;DHT22;1382;52.142;11.618;2024-02-16T10:55:06;17.20;60.90
2749;DHT22;1382;52.142;11.618;2024-02-16T10:57:36;17.30;61.00
2749;DHT22;1382;52.142;11.618;2024-02-16T11:00:08;17.40;61.00
2749;DHT22;1382;52.142;11.618;2024-02-16T11:02:50;17.40;61.10
2749;DHT22;1382;52.142;11.618;2024-02-16T11:05:18;17.60;61.10
2749;DHT22;1382;52.142;11.618;2024-02-16T11:07:45;17.50;61.20
2749;DHT22;1382;52.142;11.618;2024-02-16T11:10:13;17.60;60.80
2749;DHT22;1382;52.142;11.618;2024-02-16T11:12:44;17.90;60.80
2749;DHT22;1382;52.142;11.618;2024-02-16T11:15:11;17.90;60.60
2749;DHT22;1382;52.142;11.618;2024-02-16T11:17:40;17.90;60.60
2749;DHT22;1382;52.142;11.618;2024-02-16T11:20:08;18.10;60.90
2749;DHT22;1382;52.142;11.618;2024-02-16T11:22:46;18.10;60.70
2749;DHT22;1382;52.142;11.618;2024-02-16T11:25:30;18.20;60.70
2749;DHT22;1382;52.142;11.618;2024-02-16T11:31:05;18.30;60.60
2749;DHT22;1382;52.142;11.618;2024-02-16T11:33:36;18.50;61.70
2749;DHT22;1382;52.142;11.618;2024-02-16T11:36:22;18.60;61.10
2749;DHT22;1382;52.142;11.618;2024-02-16T11:38:54;18.70;60.80
2749;DHT22;1382;52.142;11.618;2024-02-16T11:41:35;18.80;60.10
2749;DHT22;1382;52.142;11.618;2024-02-16T11:44:18;18.80;59.40
2749;DHT22;1382;52.142;11.618;2024-02-16T11:46:48;19.00;59.50
2749;DHT22;1382;52.142;11.618;2024-02-16T11:49:15;19.00;59.60
2749;DHT22;1382;52.142;11.618;2024-02-16T11:51:49;19.10;59.60
2749;DHT22;1382;52.142;11.618;2024-02-16T11:54:16;19.10;59.60
2749;DHT22;1382;52.142;11.618;2024-02-16T11:56:52;19.20;59.70
2749;DHT22;1382;52.142;11.618;2024-02-16T11:59:28;19.20;59.70
2749;DHT22;1382;52.142;11.618;2024-02-16T12:01:56;19.30;59.90
2749;DHT22;1382;52.142;11.618;2024-02-16T12:04:28;19.30;59.80
2749;DHT22;1382;52.142;11.618;2024-02-16T12:07:12;19.20;59.50
2749;DHT22;1382;52.142;11.618;2024-02-16T12:09:54;19.40;59.50
2749;DHT22;1382;52.142;11.618;2024-02-16T12:12:25;19.40;59.50
2749;DHT22;1382;52.142;11.618;2024-02-16T12:14:53;19.40;59.20
2749;DHT22;1382;52.142;11.618;2024-02-16T12:17:24;19.50;59.00
2749;DHT22;1382;52.142;11.618;2024-02-16T12:19:57;19.50;58.60
2749;DHT22;1382;52.142;11.618;2024-02-16T12:22:28;19.50;58.50
2749;DHT22;1382;52.142;11.618;2024-02-16T12:28:23;19.50;58.20
2749;DHT22;1382;52.142;11.618;2024-02-16T12:31:20;19.60;58.20
2749;DHT22;1382;52.142;11.618;2024-02-16T12:34:06;19.50;58.30
2749;DHT22;1382;52.142;11.618;2024-02-16T12:36:53;19.60;58.00
2749;DHT22;1382;52.142;11.618;2024-02-16T12:42:18;19.60;57.80
2749;DHT22;1382;52.142;11.618;2024-02-16T12:45:13;19.80;57.60
2749;DHT22;1382;52.142;11.618;2024-02-16T12:48:08;19.80;57.40
2749;DHT22;1382;52.142;11.618;2024-02-16T12:51:06;19.70;57.10
2749;DHT22;1382;52.142;11.618;2024-02-16T12:53:59;19.80;57.20
2749;DHT22;1382;52.142;11.618;2024-02-16T12:56:56;19.80;57.00
2749;DHT22;1382;52.142;11.618;2024-02-16T13:03:04;20.00;57.50
2749;DHT22;1382;52.142;11.618;2024-02-16T13:05:50;20.00;56.90
2749;DHT22;1382;52.142;11.618;2024-02-16T13:09:28;20.00;57.10
2749;DHT22;1382;52.142;11.618;2024-02-16T13:11:32;20.10;56.90
2749;DHT22;1382;52.142;11.618;2024-02-16T13:14:11;20.10;56.70
2749;DHT22;1382;52.142;11.618;2024-02-16T13:17:08;20.10;56.60
2749;DHT22;1382;52.142;11.618;2024-02-16T13:19:51;20.10;56.60
2749;DHT22;1382;52.142;11.618;2024-02-16T13:22:44;20.20;56.40
2749;DHT22;1382;52.142;11.618;2024-02-16T13:25:25;20.30;56.50
2749;DHT22;1382;52.142;11.618;2024-02-16T13:27:52;20.20;56.90
2749;DHT22;1382;52.142;11.618;2024-02-16T13:30:32;20.30;57.00
2749;DHT22;1382;52.142;11.618;2024-02-16T13:33:03;20.30;56.60
2749;DHT22;1382;52.142;11.618;2024-02-16T13:35:39;20.40;56.60
2749;DHT22;1382;52.142;11.618;2024-02-16T13:38:17;20.40;56.80
2749;DHT22;1382;52.142;11.618;2024-02-16T13:40:47;20.50;56.50
2749;DHT22;1382;52.142;11.618;2024-02-16T13:43:16;20.60;56.60
2749;DHT22;1382;52.142;11.618;2024-02-16T13:45:52;20.60;56.40
2749;DHT22;1382;52.142;11.618;2024-02-16T13:48:33;20.50;56.00
2749;DHT22;1382;52.142;11.618;2024-02-16T13:51:02;20.60;56.80
2749;DHT22;1382;52.142;11.618;2024-02-16T13:53:29;20.50;56.50
2749;DHT22;1382;52.142;11.618;2024-02-16T13:55:56;20.60;56.50
2749;DHT22;1382;52.142;11.618;2024-02-16T13:58:22;20.60;56.70
2749;DHT22;1382;52.142;11.618;2024-02-16T14:00:49;20.60;56.60
2749;DHT22;1382;52.142;11.618;2024-02-16T14:03:16;20.60;56.50
2749;DHT22;1382;52.142;11.618;2024-02-16T14:05:44;20.60;56.20
2749;DHT22;1382;52.142;11.618;2024-02-16T14:08:13;20.60;56.20
2749;DHT22;1382;52.142;11.618;2024-02-16T14:10:40;20.80;56.60
2749;DHT22;1382;52.142;11.618;2024-02-16T14:13:07;20.70;56.60
2749;DHT22;1382;52.142;11.618;2024-02-16T14:15:34;20.60;56.40
2749;DHT22;1382;52.142;11.618;2024-02-16T14:18:01;20.60;56.40
2749;DHT22;1382;52.142;11.618;2024-02-16T14:20:42;20.70;56.40
2749;DHT22;1382;52.142;11.618;2024-02-16T14:23:08;20.60;56.90
2749;DHT22;1382;52.142;11.618;2024-02-16T14:25:37;20.50;56.50
2749;DHT22;1382;52.142;11.618;2024-02-16T14:28:05;20.60;56.60
2749;DHT22;1382;52.142;11.618;2024-02-16T14:30:32;20.50;56.60
2749;DHT22;1382;52.142;11.618;2024-02-16T14:33:00;20.40;56.70
2749;DHT22;1382;52.142;11.618;2024-02-16T14:35:27;20.30;56.80
2749;DHT22;1382;52.142;11.618;2024-02-16T14:38:06;20.30;57.00
2749;DHT22;1382;52.142;11.618;2024-02-16T14:40:38;20.20;57.30
2749;DHT22;1382;52.142;11.618;2024-02-16T14:43:08;20.20;57.60
2749;DHT22;1382;52.142;11.618;2024-02-16T14:45:46;20.10;57.70
2749;DHT22;1382;52.142;11.618;2024-02-16T14:48:15;20.10;57.80
2749;DHT22;1382;52.142;11.618;2024-02-16T14:50:42;20.00;58.10
2749;DHT22;1382;52.142;11.618;2024-02-16T14:53:09;19.90;58.20
2749;DHT22;1382;52.142;11.618;2024-02-16T14:55:38;19.80;58.20
2749;DHT22;1382;52.142;11.618;2024-02-16T14:58:06;19.80;58.30
2749;DHT22;1382;52.142;11.618;2024-02-16T15:00:34;19.70;58.40
2749;DHT22;1382;52.142;11.618;2024-02-16T15:03:01;19.80;58.70
2749;DHT22;1382;52.142;11.618;2024-02-16T15:05:28;19.60;58.70
2749;DHT22;1382;52.142;11.618;2024-02-16T15:07:55;19.50;58.70
2749;DHT22;1382;52.142;11.618;2024-02-16T15:10:22;19.50;58.80
2749;DHT22;1382;52.142;11.618;2024-02-16T15:12:50;19.50;59.00
2749;DHT22;1382;52.142;11.618;2024-02-16T15:15:20;19.40;59.00
2749;DHT22;1382;52.142;11.618;2024-02-16T15:17:47;19.40;59.20
2749;DHT22;1382;52.142;11.618;2024-02-16T15:20:14;19.30;59.30
2749;DHT22;1382;52.142;11.618;2024-02-16T15:22:41;19.30;59.40
2749;DHT22;1382;52.142;11.618;2024-02-16T15:25:21;19.20;59.40
2749;DHT22;1382;52.142;11.618;2024-02-16T15:27:49;19.20;59.50
2749;DHT22;1382;52.142;11.618;2024-02-16T15:30:16;19.20;59.60
2749;DHT22;1382;52.142;11.618;2024-02-16T15:32:55;19.10;59.80
2749;DHT22;1382;52.142;11.618;2024-02-16T15:35:22;19.10;59.90
2749;DHT22;1382;52.142;11.618;2024-02-16T15:37:49;19.00;60.00
2749;DHT22;1382;52.142;11.618;2024-02-16T15:40:16;19.10;60.20
2749;DHT22;1382;52.142;11.618;2024-02-16T15:43:04;19.00;60.30
2749;DHT22;1382;52.142;11.618;2024-02-16T15:45:32;18.90;60.20
2749;DHT22;1382;52.142;11.618;2024-02-16T15:47:59;18.90;60.60
2749;DHT22;1382;52.142;11.618;2024-02-16T15:50:29;18.90;60.60
2749;DHT22;1382;52.142;11.618;2024-02-16T15:52:55;19.00;60.70
2749;DHT22;1382;52.142;11.618;2024-02-16T15:55:25;18.90;60.80
2749;DHT22;1382;52.142;11.618;2024-02-16T15:57:52;18.80;60.70
2749;DHT22;1382;52.142;11.618;2024-02-16T16:00:21;18.80;60.70
2749;DHT22;1382;52.142;11.618;2024-02-16T16:02:48;18.80;60.90
2749;DHT22;1382;52.142;11.618;2024-02-16T16:05:17;18.70;60.90
2749;DHT22;1382;52.142;11.618;2024-02-16T16:07:44;18.70;60.80
2749;DHT22;1382;52.142;11.618;2024-02-16T16:10:14;18.70;60.90
2749;DHT22;1382;52.142;11.618;2024-02-16T16:12:44;18.70;61.00